Kempton, Indiana
Current Conditions -  °F | °C
As of 9:55 PM on Tuesday 25 Nov 2014 (Local Time) from KTYQ Reporting Station
Overcast Overcast  
Wind Chill: 21°   Ceiling: 1200
Heat Index: 27°   Visibility: 10mi
Dew Point: 21°   Wind: 6mph
Humidity: 78%   Direction: 310°NW
Pressure: 30.21"   Gusts: NA
Location:  40.29°N, 86.23°W
Report Text: KTYQ 260255Z AUTO 31005KT 10SM OVC012 M03/M06 A3021 RMK AO2 T10271061
Loading
Personal Weather Stations






























Interactive Weather Map New forecast layout! Learn more

10-Day Weather Forecast

Advertisements
Track Severe Weather on mobile